createdAt,value
2018-12-13T00:01:31.040Z,15.57
2018-12-13T00:04:07.925Z,14.50
2018-12-13T00:06:44.743Z,15.20
2018-12-13T00:09:22.737Z,14.43
2018-12-13T00:12:01.109Z,14.60
2018-12-13T00:14:38.764Z,14.30
2018-12-13T00:17:18.218Z,14.13
2018-12-13T00:19:55.220Z,14.87
2018-12-13T00:22:32.804Z,15.20
2018-12-13T00:25:09.544Z,14.70
2018-12-13T00:27:46.245Z,14.73
2018-12-13T00:33:13.709Z,14.93
2018-12-13T00:35:50.393Z,15.17
2018-12-13T00:38:28.608Z,14.70
2018-12-13T00:41:06.883Z,13.90
2018-12-13T00:43:45.194Z,14.55
2018-12-13T00:46:23.272Z,13.63
2018-12-13T00:49:01.271Z,13.20
2018-12-13T00:51:41.328Z,13.90
2018-12-13T00:54:19.344Z,13.80
2018-12-13T00:56:57.522Z,12.87
2018-12-13T00:59:35.586Z,12.90
2018-12-13T01:02:13.134Z,12.90
2018-12-13T01:04:49.728Z,12.53
2018-12-13T01:07:26.584Z,12.13
2018-12-13T01:10:03.271Z,12.67
2018-12-13T01:12:42.355Z,18.07
2018-12-13T01:15:20.977Z,14.70
2018-12-13T01:18:00.119Z,15.70
2018-12-13T01:20:36.729Z,19.20
2018-12-13T01:23:17.100Z,18.12
2018-12-13T01:25:54.791Z,15.10
2018-12-13T01:28:31.623Z,14.00
2018-12-13T01:31:09.560Z,12.47
2018-12-13T01:33:48.591Z,12.98
2018-12-13T01:36:26.194Z,10.57
2018-12-13T01:39:02.936Z,9.80
2018-12-13T01:41:39.291Z,9.37
2018-12-13T01:44:17.419Z,8.87
2018-12-13T01:46:55.731Z,8.47
2018-12-13T01:49:37.544Z,9.43
2018-12-13T01:52:18.699Z,9.57
2018-12-13T01:54:57.161Z,9.93
2018-12-13T01:57:35.697Z,9.80
2018-12-13T02:00:13.916Z,10.80
2018-12-13T02:02:51.961Z,9.90
2018-12-13T02:05:31.528Z,10.75
2018-12-13T02:08:10.485Z,10.23
2018-12-13T02:10:58.541Z,10.30
2018-12-13T02:13:39.674Z,11.40
2018-12-13T02:16:18.288Z,10.67
2018-12-13T02:18:55.005Z,11.13
2018-12-13T02:21:33.070Z,10.70
2018-12-13T02:24:08.569Z,10.83
2018-12-13T02:26:45.016Z,11.77
2018-12-13T02:29:21.062Z,12.03
2018-12-13T02:31:56.972Z,11.60
2018-12-13T02:34:33.496Z,11.97
2018-12-13T02:37:17.905Z,11.53
2018-12-13T02:39:56.267Z,12.70
2018-12-13T02:42:31.652Z,11.97
2018-12-13T02:45:07.592Z,12.87
2018-12-13T02:47:45.234Z,12.80
2018-12-13T02:50:26.027Z,12.58
2018-12-13T02:53:03.754Z,13.03
2018-12-13T02:55:50.737Z,13.40
2018-12-13T02:58:29.052Z,14.38
2018-12-13T03:01:06.119Z,13.83
2018-12-13T03:03:52.906Z,13.53
2018-12-13T03:06:30.567Z,15.17
2018-12-13T03:09:08.333Z,15.10
2018-12-13T03:11:47.748Z,14.33
2018-12-13T03:14:25.605Z,13.83
2018-12-13T03:17:04.524Z,15.27
2018-12-13T03:19:40.898Z,15.65
2018-12-13T03:22:20.111Z,16.37
2018-12-13T03:24:58.318Z,16.10
2018-12-13T03:27:37.396Z,17.63
2018-12-13T03:30:16.935Z,16.47
2018-12-13T03:32:57.315Z,14.17
2018-12-13T03:35:37.375Z,16.77
2018-12-13T03:38:17.026Z,16.73
2018-12-13T03:40:53.828Z,18.10
2018-12-13T03:43:34.457Z,16.23
2018-12-13T03:46:14.127Z,16.23
2018-12-13T03:48:52.037Z,15.67
2018-12-13T03:51:35.201Z,18.00
2018-12-13T03:54:13.437Z,17.30
2018-12-13T03:56:51.082Z,17.23
2018-12-13T03:59:28.429Z,16.85
2018-12-13T04:02:10.250Z,16.53
2018-12-13T04:04:55.363Z,17.10
2018-12-13T04:07:31.974Z,16.23
2018-12-13T04:10:09.342Z,17.47
2018-12-13T04:15:34.269Z,16.10
2018-12-13T04:18:12.223Z,16.80
2018-12-13T04:20:49.338Z,15.63
2018-12-13T04:23:26.499Z,15.38
2018-12-13T04:26:03.233Z,15.90
2018-12-13T04:28:42.238Z,16.17
2018-12-13T04:31:20.455Z,21.02
2018-12-13T04:33:59.057Z,20.73
2018-12-13T04:36:37.990Z,18.33
2018-12-13T04:39:14.067Z,19.53
2018-12-13T04:41:51.344Z,17.37
2018-12-13T04:44:29.661Z,15.15
2018-12-13T04:47:07.056Z,16.97
2018-12-13T04:49:46.702Z,15.17
2018-12-13T04:52:25.117Z,13.83
2018-12-13T04:54:59.355Z,13.73
2018-12-13T04:57:42.327Z,11.87
2018-12-13T05:00:19.810Z,12.43
2018-12-13T05:02:59.431Z,13.40
2018-12-13T05:05:37.712Z,12.33
2018-12-13T05:08:14.195Z,14.33
2018-12-13T05:13:51.567Z,16.77
2018-12-13T05:16:29.751Z,14.68
2018-12-13T05:19:11.896Z,13.87
2018-12-13T05:21:54.679Z,13.50
2018-12-13T05:24:33.844Z,13.48
2018-12-13T05:27:10.135Z,15.33
2018-12-13T05:29:47.830Z,14.60
2018-12-13T05:32:27.051Z,14.77
2018-12-13T05:35:05.901Z,16.00
2018-12-13T05:37:48.223Z,14.83
2018-12-13T05:40:24.148Z,15.33
2018-12-13T05:42:57.996Z,14.67
2018-12-13T05:45:33.625Z,14.87
2018-12-13T05:48:11.387Z,11.93
2018-12-13T05:50:47.260Z,12.30
2018-12-13T05:53:22.510Z,12.20
2018-12-13T05:55:59.069Z,12.25
2018-12-13T05:58:36.621Z,12.90
2018-12-13T06:01:13.681Z,15.93
2018-12-13T06:03:45.781Z,19.70
2018-12-13T06:06:22.580Z,15.45
2018-12-13T06:09:00.999Z,10.53
2018-12-13T06:11:37.955Z,10.03
2018-12-13T06:14:10.010Z,10.83
2018-12-13T06:16:47.406Z,11.00
2018-12-13T06:19:26.682Z,13.58
2018-12-13T06:22:03.299Z,14.60
2018-12-13T06:24:40.236Z,11.47
2018-12-13T06:27:17.035Z,9.17
2018-12-13T06:29:58.767Z,10.20
2018-12-13T06:32:35.006Z,9.40
2018-12-13T06:35:13.190Z,9.13
2018-12-13T06:37:51.738Z,9.03
2018-12-13T06:40:28.348Z,8.67
2018-12-13T06:43:05.293Z,9.37
2018-12-13T06:45:43.154Z,9.23
2018-12-13T06:48:24.842Z,9.53
2018-12-13T06:51:02.711Z,9.77
2018-12-13T06:53:40.865Z,9.85
2018-12-13T06:56:15.213Z,9.60
2018-12-13T06:58:52.855Z,9.90
2018-12-13T07:01:26.457Z,9.87
2018-12-13T07:04:04.438Z,10.50
2018-12-13T07:06:44.047Z,10.43
2018-12-13T07:09:23.823Z,10.50
2018-12-13T07:11:59.832Z,10.20
2018-12-13T07:14:37.170Z,9.67
2018-12-13T07:17:14.627Z,10.97
2018-12-13T07:19:52.292Z,9.70
2018-12-13T07:22:29.996Z,8.83
2018-12-13T07:25:07.537Z,10.08
2018-12-13T07:27:45.226Z,10.20
2018-12-13T07:30:22.321Z,9.20
2018-12-13T07:33:06.352Z,10.63
2018-12-13T07:35:45.274Z,11.43
2018-12-13T07:38:22.982Z,11.67
2018-12-13T07:41:00.831Z,11.97
2018-12-13T07:43:37.726Z,13.57
2018-12-13T07:46:13.461Z,11.07
2018-12-13T07:48:56.430Z,12.60
2018-12-13T07:51:32.305Z,14.07
2018-12-13T07:54:09.866Z,11.83
2018-12-13T07:56:51.599Z,10.07
2018-12-13T07:59:28.883Z,9.58
2018-12-13T08:02:06.448Z,11.90
2018-12-13T08:04:42.875Z,11.07
2018-12-13T08:10:09.690Z,10.90
2018-12-13T08:12:45.811Z,13.23
2018-12-13T08:15:20.997Z,12.40
2018-12-13T08:17:57.282Z,13.07
2018-12-13T08:20:34.344Z,17.73
2018-12-13T08:25:59.212Z,12.40
2018-12-13T08:28:36.828Z,14.53
2018-12-13T08:31:14.850Z,13.67
2018-12-13T08:33:52.024Z,12.73
2018-12-13T08:36:28.423Z,16.03
2018-12-13T08:39:06.466Z,16.00
2018-12-13T08:41:45.196Z,18.77
2018-12-13T08:44:23.648Z,20.85
2018-12-13T08:46:59.950Z,21.70
2018-12-13T08:49:37.079Z,25.20
2018-12-13T08:52:17.505Z,19.00
2018-12-13T08:54:55.307Z,14.17
2018-12-13T08:57:33.109Z,12.00
2018-12-13T09:00:12.348Z,13.93
2018-12-13T09:02:50.081Z,11.10
2018-12-13T09:05:28.155Z,11.47
2018-12-13T09:08:05.903Z,13.50
2018-12-13T09:10:43.291Z,12.70
2018-12-13T09:13:18.356Z,10.53
2018-12-13T09:15:55.090Z,10.43
2018-12-13T09:18:33.173Z,10.43
2018-12-13T09:21:09.518Z,11.03
2018-12-13T09:23:45.510Z,11.20
2018-12-13T09:26:21.748Z,14.60
2018-12-13T09:28:59.805Z,18.43
2018-12-13T09:31:36.520Z,16.87
2018-12-13T09:34:13.555Z,16.00
2018-12-13T09:36:51.992Z,11.40
2018-12-13T09:39:28.404Z,14.10
2018-12-13T09:42:06.671Z,14.90
2018-12-13T09:44:43.500Z,17.27
2018-12-13T09:47:20.032Z,17.73
2018-12-13T09:49:56.403Z,16.30
2018-12-13T09:52:32.879Z,14.73
2018-12-13T09:55:13.304Z,13.33
2018-12-13T09:57:50.531Z,14.00
2018-12-13T10:00:27.632Z,13.57
2018-12-13T10:03:04.337Z,12.05
2018-12-13T10:05:41.824Z,16.70
2018-12-13T10:08:18.466Z,12.70
2018-12-13T10:10:54.829Z,14.40
2018-12-13T10:13:32.899Z,15.93
2018-12-13T10:16:10.482Z,12.45
2018-12-13T10:18:47.748Z,13.83
2018-12-13T10:21:25.440Z,14.60
2018-12-13T10:24:02.158Z,14.00
2018-12-13T10:26:40.042Z,11.60
2018-12-13T10:29:17.348Z,10.47
2018-12-13T10:31:54.352Z,14.53
2018-12-13T10:34:33.339Z,16.17
2018-12-13T10:37:12.941Z,14.20
2018-12-13T10:39:50.467Z,16.07
2018-12-13T10:42:26.266Z,17.30
2018-12-13T10:45:05.040Z,17.73
2018-12-13T10:47:43.217Z,12.83
2018-12-13T10:50:19.367Z,12.17
2018-12-13T10:52:58.996Z,8.20
2018-12-13T10:55:38.467Z,8.57
2018-12-13T10:58:14.419Z,7.50
2018-12-13T11:00:54.224Z,8.27
2018-12-13T11:03:35.771Z,9.63
2018-12-13T11:06:14.070Z,7.12
2018-12-13T11:08:51.114Z,5.33
2018-12-13T11:11:30.539Z,4.60
2018-12-13T11:14:08.068Z,4.90
2018-12-13T11:16:45.789Z,5.57
2018-12-13T11:19:23.129Z,5.57
2018-12-13T11:22:00.891Z,6.13
2018-12-13T11:24:38.682Z,6.10
2018-12-13T11:27:31.564Z,6.00
2018-12-13T11:30:37.195Z,6.77
2018-12-13T11:35:59.873Z,6.77
2018-12-13T11:38:36.233Z,6.93
2018-12-13T11:41:13.362Z,7.67
2018-12-13T11:43:52.689Z,7.90
2018-12-13T11:46:28.747Z,7.83
2018-12-13T11:49:11.923Z,7.73
2018-12-13T11:51:45.501Z,7.83
2018-12-13T11:54:48.552Z,8.27
2018-12-13T11:57:25.272Z,9.03
2018-12-13T12:00:01.124Z,7.63
2018-12-13T12:02:37.941Z,7.50
2018-12-13T12:05:17.319Z,7.87
2018-12-13T12:07:53.353Z,9.77
2018-12-13T12:10:30.409Z,8.07
2018-12-13T12:13:06.824Z,11.30
2018-12-13T12:19:00.804Z,10.07
2018-12-13T12:24:03.805Z,8.17
2018-12-13T12:26:41.492Z,8.53
2018-12-13T12:29:16.387Z,7.33
2018-12-13T12:31:52.582Z,6.87
2018-12-13T12:34:28.845Z,8.00
2018-12-13T12:37:05.219Z,7.73
2018-12-13T12:39:45.471Z,7.70
2018-12-13T12:42:23.460Z,7.00
2018-12-13T12:45:03.245Z,8.10
2018-12-13T12:47:40.038Z,7.27
2018-12-13T12:50:15.719Z,7.57
2018-12-13T12:52:52.935Z,7.93
2018-12-13T12:55:31.742Z,7.20
2018-12-13T12:58:10.797Z,7.33
2018-12-13T13:00:47.226Z,8.70
2018-12-13T13:03:24.207Z,8.67
2018-12-13T13:06:03.065Z,8.23
2018-12-13T13:08:38.914Z,9.20
2018-12-13T13:11:16.724Z,8.37
2018-12-13T13:13:54.385Z,8.30
2018-12-13T13:16:29.947Z,7.72
2018-12-13T13:19:07.149Z,7.53
2018-12-13T13:21:43.882Z,7.33
2018-12-13T13:24:19.088Z,7.67
2018-12-13T13:26:54.655Z,7.27
2018-12-13T13:29:30.555Z,8.17
2018-12-13T13:32:06.124Z,8.13
2018-12-13T13:34:43.215Z,7.53
2018-12-13T13:37:21.045Z,7.97
2018-12-13T13:39:56.943Z,7.87
2018-12-13T13:42:35.161Z,7.97
2018-12-13T13:45:13.047Z,7.70
2018-12-13T13:47:48.499Z,7.35
2018-12-13T13:50:26.096Z,7.72
2018-12-13T13:53:01.759Z,7.70
2018-12-13T13:55:36.952Z,7.83
2018-12-13T13:58:12.582Z,8.43
2018-12-13T14:00:49.151Z,9.13
2018-12-13T14:03:25.610Z,9.88
2018-12-13T14:06:02.166Z,8.63
2018-12-13T14:08:38.597Z,10.07
2018-12-13T14:11:24.493Z,9.20
2018-12-13T14:14:00.639Z,10.70
2018-12-13T14:16:36.514Z,10.27
2018-12-13T14:19:12.632Z,10.20
2018-12-13T14:21:48.594Z,10.00
2018-12-13T14:24:22.563Z,10.50
2018-12-13T14:26:59.421Z,9.98
2018-12-13T14:29:34.346Z,10.33
2018-12-13T14:34:57.547Z,10.40
2018-12-13T14:37:31.906Z,10.30
2018-12-13T14:40:09.991Z,9.43
2018-12-13T14:42:46.517Z,10.50
2018-12-13T14:45:22.353Z,9.40
2018-12-13T14:47:58.918Z,9.30
2018-12-13T14:50:33.451Z,9.43
2018-12-13T14:53:06.392Z,9.33
2018-12-13T14:55:40.684Z,9.03
2018-12-13T14:58:16.051Z,8.70
2018-12-13T15:03:21.638Z,8.43
2018-12-13T15:05:57.097Z,8.83
2018-12-13T15:08:33.310Z,8.67
2018-12-13T15:11:07.251Z,9.10
2018-12-13T15:13:42.083Z,8.03
2018-12-13T15:16:15.610Z,8.35
2018-12-13T15:18:49.513Z,8.00
2018-12-13T15:21:26.585Z,8.28
2018-12-13T15:24:03.175Z,8.20
2018-12-13T15:26:38.327Z,8.27
2018-12-13T15:29:13.733Z,8.07
2018-12-13T15:31:48.873Z,9.80
2018-12-13T15:34:25.521Z,9.93
2018-12-13T15:39:56.982Z,9.27
2018-12-13T15:42:27.328Z,9.93
2018-12-13T15:45:03.829Z,11.00
2018-12-13T15:47:39.254Z,10.40
2018-12-13T15:50:15.576Z,10.70
2018-12-13T15:52:49.745Z,11.10
2018-12-13T15:55:26.832Z,10.65
2018-12-13T15:58:02.801Z,10.97
2018-12-13T16:03:55.884Z,11.00
2018-12-13T16:06:30.678Z,10.63
2018-12-13T16:09:09.090Z,10.83
2018-12-13T16:11:44.295Z,11.70
2018-12-13T16:14:20.414Z,11.33
2018-12-13T16:16:58.431Z,11.50
2018-12-13T16:19:35.659Z,10.03
2018-12-13T16:22:14.402Z,11.03
2018-12-13T16:24:50.617Z,11.77
2018-12-13T16:27:27.363Z,12.10
2018-12-13T16:30:12.114Z,14.40
2018-12-13T16:32:51.005Z,14.83
2018-12-13T16:35:26.101Z,11.37
2018-12-13T16:38:00.259Z,10.27
2018-12-13T16:40:38.402Z,11.50
2018-12-13T16:43:14.902Z,9.70
2018-12-13T16:45:53.507Z,11.03
2018-12-13T16:48:29.956Z,11.13
2018-12-13T16:51:09.343Z,11.13
2018-12-13T16:53:44.949Z,11.27
2018-12-13T16:59:05.746Z,10.63
2018-12-13T17:01:44.855Z,10.53
2018-12-13T17:04:25.561Z,10.93
2018-12-13T17:07:03.611Z,10.90
2018-12-13T17:09:41.583Z,10.47
2018-12-13T17:12:18.133Z,13.05
2018-12-13T17:14:55.429Z,10.97
2018-12-13T17:17:35.778Z,11.20
2018-12-13T17:20:15.120Z,11.63
2018-12-13T17:22:55.369Z,11.00
2018-12-13T17:25:33.200Z,12.03
2018-12-13T17:28:11.054Z,11.77
2018-12-13T17:30:47.800Z,12.50
2018-12-13T17:36:06.148Z,11.70
2018-12-13T17:38:44.460Z,12.80
2018-12-13T17:41:22.564Z,11.40
2018-12-13T17:46:53.354Z,11.73
2018-12-13T17:50:15.351Z,11.20
2018-12-13T17:52:56.473Z,10.17
2018-12-13T17:55:29.288Z,11.73
2018-12-13T17:58:02.683Z,11.83
2018-12-13T18:00:38.743Z,11.37
2018-12-13T18:03:16.420Z,10.97
2018-12-13T18:05:53.420Z,11.43
2018-12-13T18:08:31.966Z,10.58
2018-12-13T18:11:11.682Z,11.13
2018-12-13T18:13:49.651Z,11.37
2018-12-13T18:16:27.865Z,11.03
2018-12-13T18:18:59.666Z,10.33
2018-12-13T18:21:40.638Z,11.80
2018-12-13T18:24:19.933Z,12.18
2018-12-13T18:26:57.072Z,11.53
2018-12-13T18:30:04.632Z,11.83
2018-12-13T18:32:42.487Z,11.50
2018-12-13T18:35:21.145Z,11.27
2018-12-13T18:37:59.585Z,11.73
2018-12-13T18:40:36.403Z,11.43
2018-12-13T18:43:10.523Z,10.50
2018-12-13T18:45:49.395Z,11.20
2018-12-13T18:48:27.243Z,10.58
2018-12-13T18:51:05.009Z,11.20
2018-12-13T18:53:42.079Z,11.70
2018-12-13T18:56:19.049Z,10.58
2018-12-13T18:58:57.046Z,10.33
2018-12-13T19:01:32.551Z,10.97
2018-12-13T19:04:26.367Z,10.87
2018-12-13T19:07:04.816Z,9.40
2018-12-13T19:09:42.335Z,10.00
2018-12-13T19:12:19.995Z,10.57
2018-12-13T19:14:57.542Z,10.40
2018-12-13T19:17:37.033Z,9.43
2018-12-13T19:22:50.699Z,10.50
2018-12-13T19:25:35.796Z,10.70
2018-12-13T19:28:17.748Z,10.78
2018-12-13T19:30:55.767Z,10.10
2018-12-13T19:33:33.572Z,10.03
2018-12-13T19:36:12.388Z,9.83
2018-12-13T19:50:21.068Z,10.13
2018-12-13T19:52:59.673Z,9.73
2018-12-13T19:55:34.188Z,11.00
2018-12-13T19:58:15.566Z,10.40
2018-12-13T20:00:53.875Z,11.03
2018-12-13T20:03:32.692Z,10.87
2018-12-13T20:06:16.893Z,10.17
2018-12-13T20:08:56.635Z,10.57
2018-12-13T20:11:33.532Z,9.90
2018-12-13T20:14:11.295Z,10.10
2018-12-13T20:16:47.590Z,11.07
2018-12-13T20:19:28.272Z,10.38
2018-12-13T20:22:05.136Z,10.23
2018-12-13T20:24:47.903Z,11.07
2018-12-13T20:27:26.216Z,10.85
2018-12-13T20:30:03.301Z,11.40
2018-12-13T20:32:41.189Z,11.07
2018-12-13T20:35:19.919Z,10.65
2018-12-13T20:37:56.694Z,11.60
2018-12-13T20:40:34.569Z,10.28
2018-12-13T20:43:11.314Z,11.93
2018-12-13T20:45:49.801Z,11.27
2018-12-13T20:48:27.375Z,12.80
2018-12-13T20:51:10.114Z,12.57
2018-12-13T20:53:49.100Z,11.73
2018-12-13T20:56:28.536Z,12.33
2018-12-13T20:59:07.243Z,14.20
2018-12-13T21:01:45.326Z,12.10
2018-12-13T21:04:22.434Z,11.88
2018-12-13T21:07:02.526Z,12.93
2018-12-13T21:12:27.516Z,13.50
2018-12-13T21:15:05.090Z,13.40
2018-12-13T21:17:43.808Z,12.80
2018-12-13T21:20:18.532Z,13.48
2018-12-13T21:22:55.750Z,13.40
2018-12-13T21:25:33.678Z,13.40
2018-12-13T21:28:10.067Z,14.00
2018-12-13T21:30:48.571Z,13.62
2018-12-13T21:33:27.050Z,14.40
2018-12-13T21:36:04.044Z,14.47
2018-12-13T21:38:41.779Z,14.43
2018-12-13T21:41:19.347Z,15.83
2018-12-13T21:43:55.977Z,18.97
2018-12-13T21:46:31.415Z,15.00
2018-12-13T21:49:10.973Z,14.43
2018-12-13T21:51:48.958Z,13.93
2018-12-13T21:54:27.146Z,14.67
2018-12-13T21:57:04.428Z,14.20
2018-12-13T21:59:42.502Z,15.03
2018-12-13T22:02:19.780Z,14.68
2018-12-13T22:04:58.738Z,14.57
2018-12-13T22:07:35.563Z,14.67
2018-12-13T22:10:11.619Z,15.03
2018-12-13T22:12:45.861Z,14.83
2018-12-13T22:15:21.412Z,15.80
2018-12-13T22:17:56.253Z,14.97
2018-12-13T22:20:41.238Z,15.13
2018-12-13T22:23:17.543Z,14.67
2018-12-13T22:25:55.036Z,14.53
2018-12-13T22:28:30.879Z,15.20
2018-12-13T22:31:09.695Z,16.13
2018-12-13T22:33:45.294Z,16.40
2018-12-13T22:36:18.457Z,14.23
2018-12-13T22:38:53.647Z,15.27
2018-12-13T22:41:27.034Z,16.50
2018-12-13T22:44:02.775Z,15.38
2018-12-13T22:46:38.557Z,15.50
2018-12-13T22:49:14.858Z,16.45
2018-12-13T22:51:54.186Z,16.77
2018-12-13T22:54:31.694Z,15.17
2018-12-13T22:57:07.869Z,16.10
2018-12-13T22:59:46.406Z,17.03
2018-12-13T23:02:25.231Z,17.40
2018-12-13T23:05:00.095Z,17.17
2018-12-13T23:07:34.669Z,15.70
2018-12-13T23:10:13.842Z,15.87
2018-12-13T23:12:50.851Z,17.53
2018-12-13T23:15:33.243Z,16.67
2018-12-13T23:18:10.505Z,19.30
2018-12-13T23:20:48.525Z,16.07
2018-12-13T23:26:12.152Z,17.30
2018-12-13T23:28:52.796Z,17.00
2018-12-13T23:31:28.993Z,17.02
2018-12-13T23:34:04.829Z,16.77
2018-12-13T23:36:42.375Z,17.37
2018-12-13T23:39:20.677Z,16.90
2018-12-13T23:41:58.374Z,18.10
2018-12-13T23:44:33.602Z,16.90
2018-12-13T23:47:09.803Z,16.93
2018-12-13T23:49:47.485Z,17.60
2018-12-13T23:52:25.203Z,18.12
2018-12-13T23:55:02.295Z,16.97
2018-12-13T23:57:40.000Z,16.17
